Time;durP1;ratioP1;P1;durP2;ratioP2;P2;SDS_P1;SDS_P2;PMS_P1;PMS_P2;Temp;Humidity;BMP_temperature;BMP_pressure;BME280_temperature;BME280_humidity;BME280_pressure;Samples;Min_cycle;Max_cycle;Signal;HPM_P1;HPM_P2
2023/05/01 07:12:11;;;;;;;;;;;16.90;64.50;;;;;;6241673;22;20001;-69
2023/05/01 07:14:37;;;;;;;;;;;16.80;64.40;;;;;;6240687;23;19977;-70
2023/05/01 07:17:05;;;;;;;;;;;16.80;64.00;;;;;;6241867;22;19908;-72
2023/05/01 07:19:32;;;;;;;;;;;16.80;63.60;;;;;;6190341;23;19915;-73
2023/05/01 07:21:59;;;;;;;;;;;16.80;64.70;;;;;;6215206;23;19939;-73
2023/05/01 07:24:25;;;;;;;;;;;16.80;65.40;;;;;;6241636;23;19908;-72
2023/05/01 07:26:52;;;;;;;;;;;16.70;64.90;;;;;;6241361;22;20213;-72
2023/05/01 07:29:19;;;;;;;;;;;16.70;65.40;;;;;;6241595;23;19907;-72
2023/05/01 07:31:47;;;;;;;;;;;16.70;65.40;;;;;;6214506;23;19911;-72
2023/05/01 07:34:14;;;;;;;;;;;16.60;65.30;;;;;;6240720;23;19950;-72
2023/05/01 07:36:40;;;;;;;;;;;16.60;65.60;;;;;;6214957;23;19908;-72
2023/05/01 07:39:07;;;;;;;;;;;16.60;66.00;;;;;;6213699;23;19908;-72
2023/05/01 07:41:34;;;;;;;;;;;16.50;65.90;;;;;;6241653;23;19903;-71
2023/05/01 07:44:00;;;;;;;;;;;16.50;66.00;;;;;;6240795;23;19915;-72
2023/05/01 07:46:27;;;;;;;;;;;16.50;66.20;;;;;;6240931;23;19931;-72
2023/05/01 07:48:54;;;;;;;;;;;16.50;66.10;;;;;;6241320;22;19908;-70
2023/05/01 07:51:21;;;;;;;;;;;16.50;66.00;;;;;;6240631;23;19904;-69
2023/05/01 07:53:48;;;;;;;;;;;16.50;66.40;;;;;;6211907;23;20263;-69
2023/05/01 07:56:15;;;;;;;;;;;16.40;67.20;;;;;;6241853;23;19911;-69
2023/05/01 07:58:42;;;;;;;;;;;16.40;68.00;;;;;;6240545;22;19907;-72
2023/05/01 08:01:09;;;;;;;;;;;16.40;67.80;;;;;;6214282;23;20315;-69
2023/05/01 08:03:36;;;;;;;;;;;16.40;68.10;;;;;;6241216;23;19914;-69
2023/05/01 08:06:03;;;;;;;;;;;16.30;68.50;;;;;;6241060;23;20413;-70
2023/05/01 08:08:29;;;;;;;;;;;16.30;68.40;;;;;;6242961;22;20327;-70
2023/05/01 08:10:56;;;;;;;;;;;16.30;67.70;;;;;;6226898;22;19942;-72
2023/05/01 08:13:23;;;;;;;;;;;16.30;69.30;;;;;;6274059;22;19919;-69
2023/05/01 08:15:49;;;;;;;;;;;16.30;68.30;;;;;;6273468;22;19982;-70
2023/05/01 08:18:19;;;;;;;;;;;16.30;69.50;;;;;;6272648;22;19969;-74
2023/05/01 08:20:49;;;;;;;;;;;16.20;67.90;;;;;;6247668;22;20297;-73
2023/05/01 08:23:16;;;;;;;;;;;16.20;67.50;;;;;;6273335;22;19907;-75
2023/05/01 08:25:45;;;;;;;;;;;16.20;68.70;;;;;;6273910;22;19961;-74
2023/05/01 08:28:12;;;;;;;;;;;16.20;68.30;;;;;;6273164;22;19907;-73
2023/05/01 08:30:39;;;;;;;;;;;16.20;67.50;;;;;;6273460;22;19915;-73
2023/05/01 08:33:06;;;;;;;;;;;16.20;67.60;;;;;;6273694;22;20266;-77
2023/05/01 08:35:33;;;;;;;;;;;16.20;67.40;;;;;;6273251;22;19922;-75
2023/05/01 08:38:00;;;;;;;;;;;16.20;67.90;;;;;;6272649;22;20327;-73
2023/05/01 08:40:27;;;;;;;;;;;16.20;66.20;;;;;;6273102;22;19953;-73
2023/05/01 08:42:54;;;;;;;;;;;16.20;66.70;;;;;;6246857;22;19907;-73
2023/05/01 08:45:21;;;;;;;;;;;16.20;66.00;;;;;;6272624;22;19907;-73
2023/05/01 08:47:47;;;;;;;;;;;16.10;66.90;;;;;;6273491;22;20307;-73
2023/05/01 08:50:14;;;;;;;;;;;16.10;65.60;;;;;;6246535;22;19978;-73
2023/05/01 08:52:42;;;;;;;;;;;16.20;66.50;;;;;;6243512;22;19915;-73
2023/05/01 08:55:12;;;;;;;;;;;16.10;65.80;;;;;;6272964;22;19938;-74
2023/05/01 08:57:39;;;;;;;;;;;16.10;65.80;;;;;;6245305;22;20388;-72
2023/05/01 09:00:06;;;;;;;;;;;16.10;66.50;;;;;;6245858;22;19914;-73
2023/05/01 09:02:34;;;;;;;;;;;16.10;65.30;;;;;;6246837;22;19903;-71
2023/05/01 09:05:02;;;;;;;;;;;16.10;64.90;;;;;;6273413;22;20344;-70
2023/05/01 09:07:29;;;;;;;;;;;16.10;66.00;;;;;;6246383;22;19978;-70
2023/05/01 09:09:56;;;;;;;;;;;16.10;65.30;;;;;;6272769;22;19907;-71
2023/05/01 09:12:24;;;;;;;;;;;16.10;66.00;;;;;;6273171;22;20327;-70
2023/05/01 09:14:51;;;;;;;;;;;16.10;64.90;;;;;;6272904;22;19915;-71
2023/05/01 09:17:18;;;;;;;;;;;16.00;64.60;;;;;;6273065;22;20289;-71
2023/05/01 09:19:45;;;;;;;;;;;16.00;63.60;;;;;;6246116;22;19907;-71
2023/05/01 09:22:12;;;;;;;;;;;16.00;63.60;;;;;;6246629;22;20374;-71
2023/05/01 09:24:39;;;;;;;;;;;16.00;64.50;;;;;;6273465;22;19911;-70
2023/05/01 09:27:06;;;;;;;;;;;16.00;64.90;;;;;;6272122;22;20010;-70
2023/05/01 09:29:39;;;;;;;;;;;15.90;64.70;;;;;;6273404;22;19963;-70
2023/05/01 09:32:12;;;;;;;;;;;15.90;64.90;;;;;;6274184;22;19918;-70
2023/05/01 09:34:39;;;;;;;;;;;15.80;64.60;;;;;;6246565;22;19924;-70
2023/05/01 09:37:05;;;;;;;;;;;15.80;64.60;;;;;;6272939;22;19915;-72
2023/05/01 09:39:32;;;;;;;;;;;15.80;66.50;;;;;;6245680;22;19911;-72
2023/05/01 09:41:59;;;;;;;;;;;15.80;65.20;;;;;;6271108;22;20234;-72
2023/05/01 09:44:26;;;;;;;;;;;15.80;66.30;;;;;;6273023;22;19914;-71
2023/05/01 09:46:53;;;;;;;;;;;15.70;65.20;;;;;;6272230;22;19934;-72
2023/05/01 09:49:20;;;;;;;;;;;15.70;65.10;;;;;;6272817;22;19957;-71
2023/05/01 09:51:47;;;;;;;;;;;15.70;65.60;;;;;;6245839;22;19929;-72
2023/05/01 09:54:17;;;;;;;;;;;15.70;65.80;;;;;;6242927;22;20304;-71
2023/05/01 09:56:47;;;;;;;;;;;15.70;66.60;;;;;;6272501;22;19913;-70
2023/05/01 09:59:18;;;;;;;;;;;15.70;64.80;;;;;;6271979;22;19923;-70
2023/05/01 10:01:46;;;;;;;;;;;15.60;64.90;;;;;;6245238;22;19908;-71
2023/05/01 10:04:13;;;;;;;;;;;15.60;65.20;;;;;;6272559;22;19942;-72
2023/05/01 10:06:40;;;;;;;;;;;15.60;66.40;;;;;;6245578;22;20627;-72
2023/05/01 10:09:15;;;;;;;;;;;15.50;66.00;;;;;;6245832;22;19930;-73
2023/05/01 10:11:52;;;;;;;;;;;15.50;66.40;;;;;;6271336;22;19923;-73
2023/05/01 10:14:19;;;;;;;;;;;15.50;65.50;;;;;;6272728;22;20049;-73
2023/05/01 10:16:46;;;;;;;;;;;15.50;65.00;;;;;;6272190;22;19913;-72
2023/05/01 10:19:13;;;;;;;;;;;15.50;65.70;;;;;;6245813;22;19903;-71
2023/05/01 10:21:40;;;;;;;;;;;15.50;65.60;;;;;;6246639;22;19941;-70
2023/05/01 10:24:08;;;;;;;;;;;15.50;65.60;;;;;;6246299;22;19931;-71
2023/05/01 10:26:35;;;;;;;;;;;15.40;65.90;;;;;;6272449;22;19991;-71
2023/05/01 10:29:02;;;;;;;;;;;15.40;65.50;;;;;;6245665;22;19990;-71
2023/05/01 10:31:31;;;;;;;;;;;15.40;65.80;;;;;;6245519;22;19976;-72
2023/05/01 10:33:59;;;;;;;;;;;15.30;66.20;;;;;;6246107;22;20252;-71
2023/05/01 10:36:33;;;;;;;;;;;15.30;66.60;;;;;;6245293;22;19907;-74
2023/05/01 10:39:00;;;;;;;;;;;15.30;66.30;;;;;;6219957;22;20081;-73
2023/05/01 10:41:45;;;;;;;;;;;15.30;66.60;;;;;;6272409;22;19910;-70
2023/05/01 10:44:25;;;;;;;;;;;15.30;66.90;;;;;;6271998;22;19903;-71
2023/05/01 10:46:52;;;;;;;;;;;15.30;67.00;;;;;;6270795;22;19907;-71
2023/05/01 10:49:18;;;;;;;;;;;15.20;66.90;;;;;;6245262;22;19995;-72
2023/05/01 10:51:54;;;;;;;;;;;15.20;67.00;;;;;;6245153;22;19907;-73
2023/05/01 10:54:22;;;;;;;;;;;15.20;67.00;;;;;;6270233;22;20332;-72
2023/05/01 10:56:48;;;;;;;;;;;15.20;66.70;;;;;;6272424;22;19986;-73
2023/05/01 10:59:15;;;;;;;;;;;15.20;66.70;;;;;;6244750;22;19986;-73
2023/05/01 11:01:46;;;;;;;;;;;15.20;66.50;;;;;;6244903;22;19914;-72
2023/05/01 11:04:23;;;;;;;;;;;15.20;66.90;;;;;;6244703;22;19953;-72
2023/05/01 11:07:06;;;;;;;;;;;15.10;66.90;;;;;;6272010;22;19949;-72
2023/05/01 11:09:37;;;;;;;;;;;15.10;67.40;;;;;;6271903;22;19907;-72
2023/05/01 11:12:04;;;;;;;;;;;15.10;67.70;;;;;;6244650;22;19915;-71
2023/05/01 11:14:49;;;;;;;;;;;15.00;67.40;;;;;;6245174;22;19956;-71
2023/05/01 11:17:36;;;;;;;;;;;15.10;67.90;;;;;;6272563;22;19982;-71
2023/05/01 11:20:03;;;;;;;;;;;15.00;67.70;;;;;;6245400;22;19911;-72
2023/05/01 11:22:31;;;;;;;;;;;15.00;67.90;;;;;;6272491;22;19911;-71
2023/05/01 11:24:57;;;;;;;;;;;15.00;68.40;;;;;;6271498;22;19969;-71
2023/05/01 11:27:24;;;;;;;;;;;14.90;68.60;;;;;;6271108;22;19965;-71
2023/05/01 11:29:51;;;;;;;;;;;14.90;69.20;;;;;;6245469;22;20009;-71
2023/05/01 11:32:18;;;;;;;;;;;14.90;69.70;;;;;;6245233;22;19907;-70
2023/05/01 11:34:45;;;;;;;;;;;14.90;70.00;;;;;;6244777;22;19915;-73
2023/05/01 11:37:13;;;;;;;;;;;14.90;70.00;;;;;;6271617;22;19943;-72
2023/05/01 11:39:46;;;;;;;;;;;14.90;69.90;;;;;;6271471;22;19968;-72
2023/05/01 11:42:13;;;;;;;;;;;14.80;69.70;;;;;;6274642;22;19904;-71
2023/05/01 11:44:40;;;;;;;;;;;14.80;70.20;;;;;;6247555;22;20302;-72
2023/05/01 11:47:07;;;;;;;;;;;14.80;70.20;;;;;;6274339;22;20247;-71
2023/05/01 11:49:34;;;;;;;;;;;14.80;70.20;;;;;;6247952;22;19948;-72
2023/05/01 11:52:01;;;;;;;;;;;14.80;70.50;;;;;;6247675;22;19903;-72
2023/05/01 11:54:28;;;;;;;;;;;14.70;70.80;;;;;;6245852;22;19998;-71
2023/05/01 11:57:01;;;;;;;;;;;14.70;71.10;;;;;;6277155;22;19908;-71
2023/05/01 11:59:27;;;;;;;;;;;14.70;71.00;;;;;;6276217;22;20327;-72
2023/05/01 12:01:54;;;;;;;;;;;14.60;71.60;;;;;;6276926;22;19903;-71
2023/05/01 12:04:25;;;;;;;;;;;14.60;71.70;;;;;;6276060;22;19904;-71
2023/05/01 12:06:52;;;;;;;;;;;14.50;72.30;;;;;;6276178;22;19914;-71
2023/05/01 12:09:19;;;;;;;;;;;14.50;72.70;;;;;;6249222;22;19907;-71
2023/05/01 12:11:47;;;;;;;;;;;14.50;72.90;;;;;;6248965;22;19938;-71
2023/05/01 12:14:14;;;;;;;;;;;14.50;73.00;;;;;;6249744;22;19973;-71
2023/05/01 12:16:41;;;;;;;;;;;14.50;73.20;;;;;;6277140;22;19907;-71
2023/05/01 12:19:08;;;;;;;;;;;14.40;73.10;;;;;;6277606;22;19968;-72
2023/05/01 12:21:35;;;;;;;;;;;14.40;73.30;;;;;;6250619;22;19911;-71
2023/05/01 12:24:09;;;;;;;;;;;14.40;73.70;;;;;;6250330;22;20266;-71
2023/05/01 12:26:36;;;;;;;;;;;14.40;73.80;;;;;;6277169;22;19907;-71
2023/05/01 12:29:04;;;;;;;;;;;14.40;73.80;;;;;;6250292;22;19926;-71
2023/05/01 12:31:30;;;;;;;;;;;14.40;73.60;;;;;;6276596;22;19974;-71
2023/05/01 12:33:58;;;;;;;;;;;14.30;73.50;;;;;;6249104;22;19911;-71
2023/05/01 12:36:27;;;;;;;;;;;14.30;73.80;;;;;;6277474;22;19903;-71
2023/05/01 12:38:55;;;;;;;;;;;14.30;74.10;;;;;;6277017;22;19903;-71
2023/05/01 12:41:21;;;;;;;;;;;14.30;74.20;;;;;;6276919;22;19903;-71
2023/05/01 12:43:48;;;;;;;;;;;14.30;74.30;;;;;;6248964;22;20242;-71
2023/05/01 12:46:15;;;;;;;;;;;14.30;74.40;;;;;;6276217;22;19911;-71
2023/05/01 12:48:42;;;;;;;;;;;14.30;74.80;;;;;;6276721;22;19904;-71
2023/05/01 12:51:09;;;;;;;;;;;14.30;75.00;;;;;;6249589;22;19911;-71
2023/05/01 12:53:35;;;;;;;;;;;14.30;75.00;;;;;;6250255;22;20284;-71
2023/05/01 12:56:02;;;;;;;;;;;14.20;75.30;;;;;;6249068;22;19982;-71
2023/05/01 12:58:35;;;;;;;;;;;14.20;75.60;;;;;;6276712;22;19957;-71
2023/05/01 13:01:02;;;;;;;;;;;14.20;75.80;;;;;;6276841;22;19923;-71
2023/05/01 13:03:29;;;;;;;;;;;14.20;75.80;;;;;;6275232;22;19930;-71
2023/05/01 13:05:56;;;;;;;;;;;14.20;76.00;;;;;;6250100;22;20230;-71
2023/05/01 13:08:30;;;;;;;;;;;14.20;76.20;;;;;;6248954;22;19907;-71
2023/05/01 13:10:57;;;;;;;;;;;14.20;76.30;;;;;;6276060;22;20002;-72
2023/05/01 13:13:28;;;;;;;;;;;14.10;76.20;;;;;;6276387;22;20319;-71
2023/05/01 13:16:02;;;;;;;;;;;14.10;76.00;;;;;;6276468;22;20231;-71
2023/05/01 13:18:30;;;;;;;;;;;14.10;76.00;;;;;;6276139;22;20337;-71
2023/05/01 13:21:05;;;;;;;;;;;14.20;76.00;;;;;;6276120;22;19974;-71
2023/05/01 13:23:31;;;;;;;;;;;14.10;76.00;;;;;;6247425;22;19904;-71
2023/05/01 13:25:58;;;;;;;;;;;14.20;76.40;;;;;;6247754;22;19917;-71
2023/05/01 13:28:25;;;;;;;;;;;14.10;76.90;;;;;;6247929;22;19913;-70
2023/05/01 13:30:51;;;;;;;;;;;14.10;77.20;;;;;;6276078;22;19934;-72
2023/05/01 13:33:18;;;;;;;;;;;14.00;77.10;;;;;;6275897;22;20002;-71
2023/05/01 13:35:45;;;;;;;;;;;14.00;77.40;;;;;;6249445;22;19968;-71
2023/05/01 13:38:12;;;;;;;;;;;14.00;77.30;;;;;;6249251;22;20380;-71
2023/05/01 13:40:39;;;;;;;;;;;14.00;77.50;;;;;;6249404;22;19957;-71
2023/05/01 13:43:07;;;;;;;;;;;13.90;77.60;;;;;;6249326;22;19985;-71
2023/05/01 13:45:34;;;;;;;;;;;13.90;77.60;;;;;;6248322;22;19903;-71
2023/05/01 13:48:01;;;;;;;;;;;13.90;77.70;;;;;;6248554;22;19904;-69
2023/05/01 13:50:28;;;;;;;;;;;13.90;77.30;;;;;;6248257;22;19915;-70
2023/05/01 13:52:55;;;;;;;;;;;13.90;77.30;;;;;;6275611;22;19952;-70
2023/05/01 13:55:23;;;;;;;;;;;13.90;77.20;;;;;;6275080;22;19907;-69
2023/05/01 13:57:50;;;;;;;;;;;13.80;77.10;;;;;;6249336;22;19908;-70
2023/05/01 14:00:17;;;;;;;;;;;13.80;77.10;;;;;;6249021;22;19961;-70
2023/05/01 14:02:46;;;;;;;;;;;13.80;77.00;;;;;;6275250;22;20326;-71
2023/05/01 14:05:12;;;;;;;;;;;13.80;77.20;;;;;;6276497;22;19985;-70
2023/05/01 14:07:44;;;;;;;;;;;13.70;77.10;;;;;;6275530;22;19931;-71
2023/05/01 14:10:11;;;;;;;;;;;13.70;77.30;;;;;;6249138;22;19935;-70
2023/05/01 14:12:38;;;;;;;;;;;13.70;77.20;;;;;;6275371;22;20277;-71
2023/05/01 14:15:07;;;;;;;;;;;13.70;77.50;;;;;;6248766;22;19982;-71
2023/05/01 14:17:34;;;;;;;;;;;13.70;77.50;;;;;;6275208;22;19907;-71
2023/05/01 14:20:01;;;;;;;;;;;13.70;77.40;;;;;;6248702;22;19978;-71
2023/05/01 14:22:28;;;;;;;;;;;13.70;77.40;;;;;;6274585;22;19983;-70
2023/05/01 14:24:56;;;;;;;;;;;13.70;77.30;;;;;;6275315;22;20221;-71
2023/05/01 14:27:22;;;;;;;;;;;13.70;77.30;;;;;;6275555;22;19907;-71
2023/05/01 14:29:49;;;;;;;;;;;13.70;77.70;;;;;;6275876;22;19903;-70
2023/05/01 14:32:16;;;;;;;;;;;13.70;77.00;;;;;;6275108;22;19935;-71
2023/05/01 14:34:44;;;;;;;;;;;13.70;77.00;;;;;;6275913;22;20033;-71
2023/05/01 14:37:13;;;;;;;;;;;13.60;76.70;;;;;;6275894;22;19903;-71
2023/05/01 14:39:40;;;;;;;;;;;13.60;76.50;;;;;;6275749;22;19903;-71
2023/05/01 14:42:07;;;;;;;;;;;13.60;76.70;;;;;;6247843;22;19967;-71
2023/05/01 14:44:34;;;;;;;;;;;13.60;76.90;;;;;;6247717;22;19903;-71
2023/05/01 14:47:01;;;;;;;;;;;13.60;76.90;;;;;;6222459;22;20230;-71
2023/05/01 14:49:28;;;;;;;;;;;13.60;76.80;;;;;;6247667;22;19915;-71
2023/05/01 14:51:55;;;;;;;;;;;13.60;76.90;;;;;;6275288;22;19904;-69
2023/05/01 14:54:21;;;;;;;;;;;13.60;77.40;;;;;;6274572;22;19926;-70
2023/05/01 14:56:48;;;;;;;;;;;13.50;77.30;;;;;;6275420;22;19907;-70
2023/05/01 14:59:16;;;;;;;;;;;13.50;76.90;;;;;;6275800;22;19931;-71
2023/05/01 15:01:42;;;;;;;;;;;13.50;77.30;;;;;;6274157;22;19908;-70
2023/05/01 15:04:10;;;;;;;;;;;13.50;77.10;;;;;;6273897;22;20238;-70
2023/05/01 15:06:37;;;;;;;;;;;13.50;77.10;;;;;;6274457;22;19999;-70
2023/05/01 15:09:04;;;;;;;;;;;13.50;76.90;;;;;;6248266;22;20370;-71
2023/05/01 15:11:30;;;;;;;;;;;13.50;77.00;;;;;;6275738;22;19916;-71
2023/05/01 15:13:57;;;;;;;;;;;13.50;76.90;;;;;;6275138;22;19907;-71
2023/05/01 15:16:24;;;;;;;;;;;13.50;77.40;;;;;;6275121;22;19941;-71
2023/05/01 15:18:51;;;;;;;;;;;13.50;77.30;;;;;;6274924;22;20333;-71
2023/05/01 15:21:17;;;;;;;;;;;13.50;77.30;;;;;;6275400;22;19907;-71
2023/05/01 15:23:45;;;;;;;;;;;13.40;77.60;;;;;;6274014;22;19913;-71
2023/05/01 15:26:12;;;;;;;;;;;13.30;77.40;;;;;;6274295;22;19915;-70
2023/05/01 15:28:38;;;;;;;;;;;13.40;77.50;;;;;;6274276;22;19911;-71
2023/05/01 15:31:05;;;;;;;;;;;13.30;77.40;;;;;;6275614;22;19949;-71
2023/05/01 15:33:32;;;;;;;;;;;13.30;77.50;;;;;;6274992;22;19911;-71
2023/05/01 15:35:59;;;;;;;;;;;13.30;77.60;;;;;;6248719;22;20269;-71
2023/05/01 15:38:27;;;;;;;;;;;13.30;78.40;;;;;;6274443;22;19954;-70
2023/05/01 15:40:53;;;;;;;;;;;13.30;78.10;;;;;;6274957;22;20251;-71
2023/05/01 15:43:22;;;;;;;;;;;13.30;78.10;;;;;;6273928;22;19938;-71
2023/05/01 15:45:49;;;;;;;;;;;13.30;78.10;;;;;;6274385;22;19907;-71
2023/05/01 15:48:23;;;;;;;;;;;13.30;77.90;;;;;;6247442;22;20255;-71
2023/05/01 15:50:50;;;;;;;;;;;13.20;77.90;;;;;;6273881;22;19904;-71
2023/05/01 15:53:16;;;;;;;;;;;13.30;78.00;;;;;;6275703;22;19936;-71
2023/05/01 15:55:43;;;;;;;;;;;13.30;77.80;;;;;;6275637;22;19982;-71
2023/05/01 15:58:10;;;;;;;;;;;13.30;77.70;;;;;;6274463;22;19907;-71
2023/05/01 16:00:38;;;;;;;;;;;13.30;77.80;;;;;;6274151;22;20318;-71
2023/05/01 16:03:05;;;;;;;;;;;13.30;77.90;;;;;;6274621;22;20327;-71
2023/05/01 16:05:31;;;;;;;;;;;13.30;77.70;;;;;;6248311;22;19911;-71
2023/05/01 16:07:59;;;;;;;;;;;13.20;77.70;;;;;;6274354;22;19907;-71
2023/05/01 16:10:26;;;;;;;;;;;13.20;78.10;;;;;;6248042;22;19907;-71
2023/05/01 16:12:53;;;;;;;;;;;13.20;78.60;;;;;;6274640;22;20405;-70
2023/05/01 16:15:21;;;;;;;;;;;13.20;78.50;;;;;;6274865;22;20293;-71
2023/05/01 16:17:50;;;;;;;;;;;13.20;78.00;;;;;;6274647;22;19911;-71
2023/05/01 16:20:16;;;;;;;;;;;13.20;78.60;;;;;;6274812;22;19904;-71
2023/05/01 16:22:43;;;;;;;;;;;13.10;78.10;;;;;;6274480;22;19907;-71
2023/05/01 16:25:10;;;;;;;;;;;13.20;77.80;;;;;;6274243;22;19957;-71
2023/05/01 16:27:42;;;;;;;;;;;13.20;77.70;;;;;;6275812;22;19907;-71
2023/05/01 16:30:10;;;;;;;;;;;13.10;78.40;;;;;;6275376;22;19904;-71
2023/05/01 16:32:37;;;;;;;;;;;13.10;78.10;;;;;;6275579;22;20296;-71
2023/05/01 16:35:04;;;;;;;;;;;13.10;78.00;;;;;;6249011;22;19919;-71
2023/05/01 16:37:31;;;;;;;;;;;13.10;77.70;;;;;;6275102;22;20250;-71
2023/05/01 16:39:58;;;;;;;;;;;13.10;78.00;;;;;;6249343;22;20217;-71
2023/05/01 16:42:24;;;;;;;;;;;13.10;78.10;;;;;;6276892;22;20013;-71
2023/05/01 16:44:51;;;;;;;;;;;13.10;78.70;;;;;;6276455;22;20328;-71
2023/05/01 16:47:18;;;;;;;;;;;13.10;78.70;;;;;;6275824;22;19903;-71
2023/05/01 16:49:45;;;;;;;;;;;13.10;78.70;;;;;;6275327;22;19977;-72
2023/05/01 16:52:14;;;;;;;;;;;13.10;79.00;;;;;;6276457;22;20322;-71
2023/05/01 16:54:41;;;;;;;;;;;13.00;79.80;;;;;;6275656;22;19911;-71
2023/05/01 16:57:07;;;;;;;;;;;13.00;79.60;;;;;;6276530;22;19903;-71
2023/05/01 16:59:34;;;;;;;;;;;13.00;79.90;;;;;;6275561;22;19914;-71
2023/05/01 17:02:01;;;;;;;;;;;13.00;80.20;;;;;;6275475;22;19925;-72
2023/05/01 17:04:27;;;;;;;;;;;13.00;80.20;;;;;;6276238;22;20294;-71
2023/05/01 17:06:54;;;;;;;;;;;13.00;80.50;;;;;;6276311;22;19908;-71
2023/05/01 17:09:21;;;;;;;;;;;13.00;80.80;;;;;;6277013;22;19912;-72
2023/05/01 17:11:48;;;;;;;;;;;12.90;80.70;;;;;;6275952;22;20378;-71
2023/05/01 17:14:15;;;;;;;;;;;12.90;80.80;;;;;;6276222;22;20418;-71
2023/05/01 17:16:41;;;;;;;;;;;12.90;80.90;;;;;;6275735;22;20311;-71
2023/05/01 17:19:08;;;;;;;;;;;12.90;81.80;;;;;;6276495;22;19899;-71
2023/05/01 17:21:35;;;;;;;;;;;12.90;81.50;;;;;;6276539;22;20319;-71
2023/05/01 17:24:03;;;;;;;;;;;12.90;81.20;;;;;;6276571;22;19903;-71
2023/05/01 17:26:30;;;;;;;;;;;12.90;81.00;;;;;;6275228;22;20242;-71
2023/05/01 17:28:56;;;;;;;;;;;12.90;80.90;;;;;;6276482;22;19978;-72
2023/05/01 17:31:23;;;;;;;;;;;12.90;80.70;;;;;;6276093;22;20569;-71
2023/05/01 17:33:50;;;;;;;;;;;13.00;80.90;;;;;;6275974;22;19953;-71
2023/05/01 17:36:16;;;;;;;;;;;13.00;80.90;;;;;;6275777;22;19911;-71
2023/05/01 17:38:43;;;;;;;;;;;13.00;80.60;;;;;;6275005;22;20473;-71
2023/05/01 17:41:10;;;;;;;;;;;12.90;80.60;;;;;;6276042;22;19904;-71
2023/05/01 17:43:36;;;;;;;;;;;12.90;81.40;;;;;;6275453;22;20233;-71
2023/05/01 17:46:03;;;;;;;;;;;12.90;80.90;;;;;;6276119;22;19969;-72
2023/05/01 17:48:30;;;;;;;;;;;12.80;81.70;;;;;;6274992;22;20326;-71
2023/05/01 17:50:57;;;;;;;;;;;12.80;80.90;;;;;;6273465;22;19904;-71
2023/05/01 17:53:24;;;;;;;;;;;12.80;81.60;;;;;;6275431;22;19914;-71
2023/05/01 17:55:51;;;;;;;;;;;12.80;80.90;;;;;;6248089;22;19907;-72
2023/05/01 17:58:18;;;;;;;;;;;12.80;80.80;;;;;;6247548;22;19918;-72
2023/05/01 18:00:45;;;;;;;;;;;12.80;80.60;;;;;;6275652;22;19911;-71
2023/05/01 18:03:12;;;;;;;;;;;12.80;80.50;;;;;;6247993;22;19907;-71
2023/05/01 18:05:38;;;;;;;;;;;12.80;80.60;;;;;;6274923;22;19919;-71
2023/05/01 18:08:06;;;;;;;;;;;12.80;80.30;;;;;;6274472;22;20278;-72
2023/05/01 18:10:33;;;;;;;;;;;12.80;80.60;;;;;;6275625;22;19919;-72
2023/05/01 18:12:59;;;;;;;;;;;12.80;80.20;;;;;;6275484;22;19992;-71
2023/05/01 18:15:26;;;;;;;;;;;12.70;80.50;;;;;;6275273;22;19919;-72
2023/05/01 18:17:53;;;;;;;;;;;12.70;80.60;;;;;;6247643;22;19931;-72
2023/05/01 18:20:20;;;;;;;;;;;12.70;80.10;;;;;;6274848;22;19937;-71
2023/05/01 18:22:46;;;;;;;;;;;12.60;80.30;;;;;;6275373;22;19938;-72
2023/05/01 18:25:14;;;;;;;;;;;12.50;80.60;;;;;;6275306;22;19908;-72
2023/05/01 18:27:41;;;;;;;;;;;12.50;80.70;;;;;;6274940;22;19911;-72
2023/05/01 18:30:08;;;;;;;;;;;12.50;80.90;;;;;;6274900;22;19914;-71
2023/05/01 18:32:35;;;;;;;;;;;12.60;80.90;;;;;;6275291;22;19907;-71
2023/05/01 18:35:02;;;;;;;;;;;12.60;80.90;;;;;;6275115;22;19965;-72
2023/05/01 18:37:29;;;;;;;;;;;12.60;81.10;;;;;;6274585;22;20314;-70
2023/05/01 18:39:56;;;;;;;;;;;12.50;81.20;;;;;;6274344;22;19907;-71
2023/05/01 18:42:22;;;;;;;;;;;12.50;81.30;;;;;;6275658;22;20269;-72
2023/05/01 18:44:49;;;;;;;;;;;12.50;81.30;;;;;;6275155;22;20242;-72
2023/05/01 18:47:16;;;;;;;;;;;12.50;81.50;;;;;;6275700;22;19903;-72
2023/05/01 18:49:43;;;;;;;;;;;12.40;81.70;;;;;;6248047;22;19957;-72
2023/05/01 18:52:09;;;;;;;;;;;12.30;81.80;;;;;;6274230;22;20216;-72
2023/05/01 18:54:36;;;;;;;;;;;12.30;82.10;;;;;;6273824;22;19915;-72
2023/05/01 18:57:03;;;;;;;;;;;12.20;82.20;;;;;;6274737;22;20234;-72
2023/05/01 18:59:30;;;;;;;;;;;12.30;82.30;;;;;;6275194;22;19908;-72
2023/05/01 19:01:57;;;;;;;;;;;12.20;82.60;;;;;;6274203;22;19903;-72
2023/05/01 19:04:24;;;;;;;;;;;12.20;82.40;;;;;;6275063;22;19926;-72
2023/05/01 19:06:51;;;;;;;;;;;12.20;82.30;;;;;;6275672;22;20211;-72
2023/05/01 19:09:18;;;;;;;;;;;12.30;82.10;;;;;;6275163;22;19903;-72
2023/05/01 19:11:44;;;;;;;;;;;12.30;81.70;;;;;;6248109;22;19915;-73
2023/05/01 19:14:11;;;;;;;;;;;12.40;81.70;;;;;;6273952;22;19915;-72
2023/05/01 19:16:38;;;;;;;;;;;12.30;81.50;;;;;;6274650;22;19907;-72
2023/05/01 19:19:04;;;;;;;;;;;12.30;81.70;;;;;;6248487;22;19903;-71
2023/05/01 19:21:31;;;;;;;;;;;12.20;81.90;;;;;;6275142;22;19926;-72
2023/05/01 19:23:58;;;;;;;;;;;12.30;81.50;;;;;;6276102;22;19918;-72
2023/05/01 19:26:24;;;;;;;;;;;12.20;81.80;;;;;;6273545;22;19911;-72
2023/05/01 19:28:51;;;;;;;;;;;12.30;81.70;;;;;;6274837;22;19959;-73
2023/05/01 19:31:18;;;;;;;;;;;12.30;81.40;;;;;;6274269;22;19908;-73
2023/05/01 19:33:46;;;;;;;;;;;12.30;81.50;;;;;;6273929;22;19907;-72
2023/05/01 19:36:13;;;;;;;;;;;12.30;81.30;;;;;;6247561;22;19914;-73
2023/05/01 19:38:40;;;;;;;;;;;12.20;81.50;;;;;;6274610;22;20277;-73
2023/05/01 19:41:06;;;;;;;;;;;12.20;81.80;;;;;;6275286;22;19956;-73
2023/05/01 19:43:33;;;;;;;;;;;12.30;81.40;;;;;;6275342;22;19903;-72
2023/05/01 19:46:00;;;;;;;;;;;12.20;81.50;;;;;;6274691;22;19946;-72
2023/05/01 19:48:27;;;;;;;;;;;12.20;81.60;;;;;;6275383;22;19904;-72
2023/05/01 19:50:54;;;;;;;;;;;12.20;81.70;;;;;;6275861;22;19911;-72
2023/05/01 19:53:21;;;;;;;;;;;12.20;82.40;;;;;;6275695;22;20002;-72
2023/05/01 19:55:47;;;;;;;;;;;12.20;82.90;;;;;;6275865;22;19907;-72
2023/05/01 19:58:14;;;;;;;;;;;12.20;82.80;;;;;;6275807;22;19903;-73
2023/05/01 20:00:41;;;;;;;;;;;12.20;82.80;;;;;;6274973;22;19903;-72
2023/05/01 20:03:09;;;;;;;;;;;12.20;82.90;;;;;;6277613;22;19923;-72
2023/05/01 20:05:36;;;;;;;;;;;12.20;83.00;;;;;;6277420;22;20315;-72
2023/05/01 20:08:03;;;;;;;;;;;12.20;83.10;;;;;;6277104;22;19926;-72
2023/05/01 20:10:30;;;;;;;;;;;12.20;83.10;;;;;;6276931;22;20369;-72
2023/05/01 20:12:57;;;;;;;;;;;12.20;83.30;;;;;;6249408;22;19903;-72
2023/05/01 20:15:24;;;;;;;;;;;12.10;83.40;;;;;;6276311;22;19952;-72
2023/05/01 20:17:51;;;;;;;;;;;12.10;83.20;;;;;;6277452;22;20310;-72
2023/05/01 20:20:18;;;;;;;;;;;12.20;83.30;;;;;;6277239;22;19965;-72
2023/05/01 20:22:45;;;;;;;;;;;12.20;83.00;;;;;;6249504;22;19990;-73
2023/05/01 20:25:12;;;;;;;;;;;12.20;82.80;;;;;;6249583;22;19904;-72
2023/05/01 20:27:39;;;;;;;;;;;12.20;83.30;;;;;;6276835;22;19903;-72
2023/05/01 20:30:09;;;;;;;;;;;12.20;82.40;;;;;;6250001;22;19986;-72
2023/05/01 20:32:41;;;;;;;;;;;12.20;82.90;;;;;;6249714;22;19903;-72
2023/05/01 20:35:09;;;;;;;;;;;12.20;82.80;;;;;;6275537;22;19912;-72
2023/05/01 20:37:35;;;;;;;;;;;12.20;82.80;;;;;;6277167;22;19904;-72
2023/05/01 20:40:03;;;;;;;;;;;12.20;82.30;;;;;;6249865;22;19903;-72
2023/05/01 20:42:29;;;;;;;;;;;12.20;82.30;;;;;;6276720;22;19937;-72
2023/05/01 20:44:56;;;;;;;;;;;12.20;82.40;;;;;;6277180;22;19911;-73
2023/05/01 20:47:23;;;;;;;;;;;12.20;82.40;;;;;;6276914;22;20234;-72
2023/05/01 20:49:49;;;;;;;;;;;12.30;82.10;;;;;;6276706;22;19999;-72
2023/05/01 20:52:16;;;;;;;;;;;12.40;82.20;;;;;;6274924;22;19904;-71
2023/05/01 20:54:43;;;;;;;;;;;12.40;82.80;;;;;;6276721;22;19912;-72
2023/05/01 20:57:10;;;;;;;;;;;12.40;83.10;;;;;;6276120;22;19911;-72
2023/05/01 20:59:36;;;;;;;;;;;12.40;83.40;;;;;;6276695;22;20512;-72
2023/05/01 21:02:03;;;;;;;;;;;12.40;83.50;;;;;;6275669;22;19903;-71
2023/05/01 21:04:30;;;;;;;;;;;12.50;82.90;;;;;;6275058;22;19914;-72
2023/05/01 21:06:57;;;;;;;;;;;12.50;83.00;;;;;;6275717;22;19903;-71
2023/05/01 21:09:24;;;;;;;;;;;12.50;82.90;;;;;;6277006;22;19919;-72
2023/05/01 21:11:50;;;;;;;;;;;12.50;82.90;;;;;;6273945;22;19994;-70
2023/05/01 21:14:17;;;;;;;;;;;12.60;82.50;;;;;;6275544;22;19922;-70
2023/05/01 21:16:44;;;;;;;;;;;12.60;82.70;;;;;;6267360;22;20248;-69
2023/05/01 21:19:11;;;;;;;;;;;12.70;83.00;;;;;;6276472;22;19907;-69
2023/05/01 21:21:38;;;;;;;;;;;12.70;82.60;;;;;;6222686;22;20330;-70
2023/05/01 21:24:05;;;;;;;;;;;12.80;83.10;;;;;;6272895;22;20226;-69
2023/05/01 21:26:32;;;;;;;;;;;12.90;83.30;;;;;;6247366;22;19910;-69
2023/05/01 21:28:58;;;;;;;;;;;12.90;83.50;;;;;;6274390;22;19932;-69